Terminal Aerodrome Forecast
Issued by NWS

Home | Current Version | Previous Version | Text Only | Print | Product List | Glossary On
Versions: 1 2 3 4 5 6 7 8 9 10 11 12
886
FTUS44 KLIX 241140
TAFGPT
TAF
KGPT 241140Z 2412/2512 02005KT P6SM VCTS FEW100CB
     FM241400 07007KT P6SM VCSH FEW035 SCT050
     FM241700 11010KT P6SM VCTS SCT040CB
     FM242100 12009KT P6SM SCT040 BKN100 PROB30 2421/2501 4SM -TSRA
      BKN040CB
     FM250100 09007KT P6SM FEW045 SCT100 PROB30 2501/2504 4SM -TSRA
      BKN040CB=

USA.gov is the U.S. government's official web portal to all federal, state and local government web resources and services.